Terrell, TX

5:01 PM CDT on August 01, 2015 (GMT -0500)
APRSWXNET | | Change Station
CLOSE
Current Station
Personal Weather Station
Location: Terrell, TX
Elevation: 505 ft
Nearby Weather Stations

Elev 505 ft 32.80 °N, 96.30 °W | Updated 24 minutes ago

Clear
Clear
97 °F
Feels Like 96 °F
N
0
Wind Variable Wind from East
Gusts 7.0 mph

Today
High -- | Low -- °F
--% Chance of Precip.
Yesterday
High -- | Low -- °F
Precip. -- in
6:39 AM 8:23 PM
Full, 97% visible
Pressure 29.94 in
Visibility 10.0 miles
Clouds Clear
Heat Index 96 °F
Dew Point 57 °F
Humidity 27%
Rainfall in
Snow Depth Not available.
UV 6 out of 12
Pollen 4.50 out of 12
Air Quality Not available.
Flu Activity Not available.
METAR KTRL 012153Z AUTO 09007KT 060V140 10SM CLR 36/14 A2996 RMK AO2 SLP138 T03560139 PNO $

More Conditions Fewer Conditions

Pressure 29.94 in
Visibility 10.0 miles
Clouds Clear
Heat Index 96 °F
Dew Point 57 °F
Humidity 27%
Rainfall in
Snow Depth Not available.
UV 6 out of 12
Pollen 4.50 out of 12
Air Quality Not available.
Flu Activity Not available.
METAR KTRL 012153Z AUTO 09007KT 060V140 10SM CLR 36/14 A2996 RMK AO2 SLP138 T03560139 PNO $

More Conditions Fewer Conditions

10-Day Weather Forecast

×

Almanac

Astronomy

Aug. 01, 2015 Rise Set
Actual Time
Civil Twilight
Nautical Twilight
Astronomical Twilight
Moon
Length of Visible Light
Length of Day
Tomorrow will be .
, % of the Moon is Illuminated

Today's Extremes

State Highs State Lows

Community

WunderPhotos

Upload Photos

1,843,077 photos uploaded!

WunderBlogs® & News

Nearby

Air Quality

  Air Quality AQ Index Pollutant
Not available.

Snow Depth

Station Depth Elevation

Earthquake Activity

City Distance Mag. Time & Date
Minimum magnitude displayed is 2.5.

Coastal Water Temperatures

Place Temperature

Stations

Nearby Weather Stations

Station Location Temp. Windchill Dew Point Humidity Wind Precip. Elev Updated Type